ADDS METAR Data INFO
IDs: Format: Raw Decoded Include TAF

Data at: 0057 UTC 22 Oct 2017

KOZW 220055Z AUTO 14006KT 10SM CLR 17/12 A3015 RMK AO2 T01700120
KOZW 220034Z AUTO 14007KT 10SM CLR 18/12 A3015 RMK AO2 T01760120
KOZW 220015Z AUTO 14008KT 10SM CLR 18/12 A3015 RMK AO2 T01750118
KOZW 212355Z AUTO 14007KT 10SM CLR 18/11 A3015 RMK AO2 T01780113 10234 20178
KOZW 212335Z AUTO 16005KT 10SM CLR 19/11 A3015 RMK AO2 T01850110
KOZW 212315Z AUTO 16003KT 10SM CLR 19/10 A3015 RMK AO2 T01900103
KOZW 212254Z AUTO 17004KT 10SM CLR 20/10 A3014 RMK AO2 T01970098
KOZW 212235Z AUTO 16007KT 10SM CLR 21/10 A3013 RMK AO2 T02050096
KOZW 212215Z AUTO 16008KT 10SM CLR 21/09 A3013 RMK AO2 T02100093
KOZW 212155Z AUTO 17008KT 10SM CLR 22/09 A3014 RMK AO2 T02160094
KOZW 212135Z AUTO 17007KT 10SM CLR 22/10 A3014 RMK AO2 T02210095
KOZW 212115Z AUTO 16009KT 10SM CLR 22/09 A3014 RMK AO2 T02230092
KOZW 212055Z AUTO 18011G16KT 10SM CLR 22/09 A3014 RMK AO2 T02240088
KOZW 212035Z AUTO 19012G15KT 10SM CLR 23/09 A3014 RMK AO2 T02280085
KOZW 212015Z AUTO 18010G14KT 10SM CLR 23/08 A3014 RMK AO2 T02270080
KOZW 211955Z AUTO 17011KT 10SM CLR 23/08 A3014 RMK AO2 T02300082
KOZW 211935Z AUTO 16011KT 10SM CLR 23/09 A3014 RMK AO2 T02340089
KOZW 211914Z AUTO 16011KT 10SM CLR 23/09 A3014 RMK AO2 T02260094
KOZW 211855Z AUTO 18009KT 10SM CLR 23/10 A3015 RMK AO2 T02290099
KOZW 211835Z AUTO 18007KT 10SM CLR 23/10 A3015 RMK AO2 T02300095
KOZW 211814Z AUTO 17008KT 10SM CLR 23/10 A3016 RMK AO2 T02250099
KOZW 211755Z AUTO 21011G14KT 10SM CLR 23/09 A3016 RMK AO2 T02250091 10227 20102
KOZW 211734Z AUTO 19005KT 10SM CLR 22/10 A3017 RMK AO2 T02200096
KOZW 211715Z AUTO 18012G16KT 10SM CLR 22/10 A3018 RMK AO2 T02220097
KOZW 211654Z AUTO 19010G14KT 10SM CLR 22/10 A3018 RMK AO2 T02220099
KOZW 211635Z AUTO 20006KT 10SM CLR 22/11 A3019 RMK AO2 T02160110
KOZW 211615Z AUTO 19009KT 10SM CLR 21/11 A3019 RMK AO2 T02050109
KOZW 211555Z AUTO 19008KT 10SM CLR 21/11 A3020 RMK AO2 T02060112
KOZW 211535Z AUTO 19008KT 10SM CLR 20/11 A3020 RMK AO2 T02000114
KOZW 211514Z AUTO 19006KT 160V220 10SM CLR 19/12 A3020 RMK AO2 T01870117
KOZW 211455Z AUTO 20005KT 10SM CLR 18/12 A3020 RMK AO2 T01780116
KOZW 211435Z AUTO 20006KT 10SM CLR 17/12 A3020 RMK AO2 T01710115
KOZW 211415Z AUTO 20004KT 10SM CLR 16/11 A3021 RMK AO2 T01610113
KOZW 211355Z AUTO 14003KT 10SM CLR 15/12 A3020 RMK AO2 T01510115
KOZW 211334Z AUTO 13004KT 7SM CLR 14/12 A3020 RMK AO2 T01390115
KOZW 211315Z AUTO 12005KT 5SM BR CLR 12/11 A3020 RMK AO2 T01220108
KOZW 211255Z AUTO 14004KT 5SM BR CLR 11/10 A3020 RMK AO2 T01090099
KOZW 211234Z AUTO 13006KT 5SM BR CLR 11/10 A3019 RMK AO2 T01050095
KOZW 211215Z AUTO 13005KT 5SM BR CLR 11/10 A3019 RMK AO2 T01050095
KOZW 211155Z AUTO 15003KT 7SM CLR 11/09 A3019 RMK AO2 T01070094 10147 20105
KOZW 211135Z AUTO 14003KT 7SM CLR 11/09 A3019 RMK AO2 T01060094
KOZW 211115Z AUTO 19004KT 10SM CLR 12/10 A3019 RMK AO2 T01150098
KOZW 211054Z AUTO 13005KT 7SM CLR 11/09 A3018 RMK AO2 T01050093
KOZW 211035Z AUTO 17003KT 10SM CLR 11/10 A3018 RMK AO2 T01110095
KOZW 211015Z AUTO 14005KT 10SM CLR 11/10 A3017 RMK AO2 T01090095
KOZW 210954Z AUTO 15003KT 10SM CLR 11/10 A3017 RMK AO2 T01120095
KOZW 210935Z AUTO 17003KT 10SM CLR 12/10 A3017 RMK AO2 T01170095
KOZW 210915Z AUTO 14004KT 10SM CLR 11/10 A3016 RMK AO2 T01120096
KOZW 210855Z AUTO 14003KT 10SM CLR 12/10 A3016 RMK AO2 T01180095
KOZW 210835Z AUTO 18003KT 10SM CLR 12/10 A3016 RMK AO2 T01240100
KOZW 210814Z AUTO 14003KT 10SM CLR 11/09 A3016 RMK AO2 T01090092
KOZW 210755Z AUTO 13005KT 10SM CLR 12/09 A3015 RMK AO2 T01160094
KOZW 210735Z AUTO 18004KT 10SM CLR 14/10 A3015 RMK AO2 T01410100
KOZW 210714Z AUTO 19004KT 10SM CLR 15/10 A3015 RMK AO2 T01450101
KOZW 210655Z AUTO 21003KT 10SM CLR 15/10 A3015 RMK AO2 T01450101
KOZW 210635Z AUTO 20003KT 10SM CLR 15/10 A3015 RMK AO2 T01450101
KOZW 210615Z AUTO 20003KT 10SM CLR 15/10 A3015 RMK AO2 T01460101
KOZW 210555Z AUTO 19003KT 10SM CLR 15/10 A3015 RMK AO2 T01490101 10191 20119 402360038
KOZW 210535Z AUTO 20005KT 10SM CLR 15/10 A3015 RMK AO2 T01510103
KOZW 210515Z AUTO 19006KT 10SM CLR 16/10 A3015 RMK AO2 T01560103
KOZW 210455Z AUTO 18005KT 10SM CLR 14/10 A3015 RMK AO2 T01420102
KOZW 210434Z AUTO 13004KT 10SM CLR 12/09 A3015 RMK AO2 T01210091
KOZW 210415Z AUTO 14004KT 10SM CLR 14/09 A3014 RMK AO2 T01350093
KOZW 210355Z AUTO 17005KT 10SM CLR 13/10 A3015 RMK AO2 T01330095
KOZW 210335Z AUTO 16003KT 10SM CLR 13/09 A3015 RMK AO2 T01250090
KOZW 210315Z AUTO 12004KT 10SM CLR 13/09 A3014 RMK AO2 T01330091
KOZW 210255Z AUTO 00000KT 10SM CLR 14/09 A3014 RMK AO2 T01370091
KOZW 210235Z AUTO 13003KT 10SM CLR 14/09 A3014 RMK AO2 T01390091
KOZW 210215Z AUTO 12003KT 10SM CLR 14/09 A3014 RMK AO2 T01380092
KOZW 210154Z AUTO 14004KT 10SM CLR 14/09 A3014 RMK AO2 T01440094
KOZW 210135Z AUTO 14004KT 10SM CLR 15/10 A3014 RMK AO2 T01490095
KOZW 210115Z AUTO 17004KT 10SM CLR 16/10 A3014 RMK AO2 T01550097
KOZW 210055Z AUTO 15004KT 10SM CLR 15/10 A3014 RMK AO2 T01490096
KOZW 210035Z AUTO 15004KT 10SM CLR 17/10 A3014 RMK AO2 T01670097
KOZW 210014Z AUTO 18006KT 10SM CLR 19/10 A3014 RMK AO2 T01900097
KOZW 202355Z AUTO 17006KT 10SM CLR 19/10 A3014 RMK AO2 T01900096 10236 20190
KOZW 202335Z AUTO 17005KT 10SM CLR 19/10 A3014 RMK AO2 T01910095
KOZW 202314Z AUTO 17004KT 10SM CLR 19/10 A3014 RMK AO2 T01920095
KOZW 202255Z AUTO 17005KT 10SM CLR 20/09 A3014 RMK AO2 T01950091
KOZW 202235Z AUTO 18005KT 10SM CLR 20/09 A3014 RMK AO2 T02010091
KOZW 202215Z AUTO 18006KT 10SM CLR 21/09 A3015 RMK AO2 T02110088
KOZW 202155Z AUTO 19006KT 10SM CLR 22/09 A3014 RMK AO2 T02150086
KOZW 202134Z AUTO 18005KT 10SM CLR 22/08 A3014 RMK AO2 T02210083
KOZW 202115Z AUTO 18008KT 10SM CLR 23/08 A3015 RMK AO2 T02250081
KOZW 202055Z AUTO 19008KT 10SM CLR 23/07 A3015 RMK AO2 T02300073
KOZW 202034Z AUTO 21010KT 10SM CLR 23/07 A3015 RMK AO2 T02340072
KOZW 202015Z AUTO 19010G14KT 10SM CLR 23/08 A3015 RMK AO2 T02340077
KOZW 201954Z AUTO 18009KT 10SM CLR 24/07 A3016 RMK AO2 T02350074
KOZW 201935Z AUTO 19012G15KT 10SM CLR 23/07 A3017 RMK AO2 T02340071
KOZW 201915Z AUTO 21009G17KT 10SM CLR 23/07 A3017 RMK AO2 T02340071
KOZW 201854Z AUTO 20011G15KT 10SM CLR 23/07 A3018 RMK AO2 T02300074
KOZW 201835Z AUTO 22010G15KT 10SM CLR 23/08 A3018 RMK AO2 T02300078
KOZW 201814Z AUTO 20009G14KT 10SM CLR 22/08 A3019 RMK AO2 T02210076
KOZW 201755Z AUTO 19007KT 10SM CLR 22/07 A3020 RMK AO2 T02220074 10222 20045
KOZW 201735Z AUTO 18007KT 150V210 10SM CLR 22/07 A3021 RMK AO2 T02190073
KOZW 201714Z AUTO 19007KT 10SM CLR 21/07 A3022 RMK AO2 T02130071
KOZW 201655Z AUTO 18006KT 10SM CLR 21/07 A3023 RMK AO2 T02090072
KOZW 201635Z AUTO 17006KT 10SM CLR 20/06 A3023 RMK AO2 T01970061
KOZW 201614Z AUTO 17006KT 10SM CLR 19/06 A3024 RMK AO2 T01880055
KOZW 201555Z AUTO 18007KT 160V220 10SM CLR 18/05 A3024 RMK AO2 T01800048
KOZW 201534Z AUTO 19007KT 10SM CLR 17/05 A3025 RMK AO2 T01720045
KOZW 201515Z AUTO 16006KT 10SM CLR 16/04 A3025 RMK AO2 T01630039
KOZW 201455Z AUTO 18006KT 10SM CLR 16/04 A3026 RMK AO2 T01550035
KOZW 201434Z AUTO 17007KT 10SM CLR 14/03 A3026 RMK AO2 T01440026
KOZW 201415Z AUTO 17007KT 10SM CLR 13/02 A3026 RMK AO2 T01330017
KOZW 201355Z AUTO 16006KT 10SM CLR 12/02 A3026 RMK AO2 T01240017
KOZW 201334Z AUTO 18003KT 10SM CLR 11/03 A3026 RMK AO2 T01130029
KOZW 201315Z AUTO 17003KT 10SM CLR 10/03 A3026 RMK AO2 T00990031